Time;durP1;ratioP1;P1;durP2;ratioP2;P2;SDS_P1;SDS_P2;PMS_P1;PMS_P2;Temp;Humidity;BMP_temperature;BMP_pressure;BME280_temperature;BME280_humidity;BME280_pressure;Samples;Min_cycle;Max_cycle;Signal;HPM_P1;HPM_P2
2023/08/05 00:00:41;;;;;;;15.00;5.63;;;12.00;98.00;;;;;;5043218;28;20457;-69
2023/08/05 00:03:07;;;;;;;12.98;5.43;;;11.90;97.80;;;;;;5032503;28;20083;-68
2023/08/05 00:05:32;;;;;;;12.40;5.25;;;11.80;97.70;;;;;;5034942;28;20455;-68
2023/08/05 00:07:58;;;;;;;11.73;5.15;;;11.80;97.80;;;;;;5056782;28;20035;-69
2023/08/05 00:10:23;;;;;;;13.00;5.13;;;11.80;98.00;;;;;;5041650;28;20033;-68
2023/08/05 00:12:49;;;;;;;13.07;5.93;;;11.90;98.10;;;;;;5041767;28;20105;-68
2023/08/05 00:15:14;;;;;;;13.95;5.70;;;11.90;98.00;;;;;;5047694;28;20064;-68
2023/08/05 00:17:39;;;;;;;14.68;6.32;;;11.90;98.10;;;;;;5044503;28;20037;-68
2023/08/05 00:20:07;;;;;;;15.70;5.90;;;12.10;98.30;;;;;;5049713;28;20475;-68
2023/08/05 00:22:33;;;;;;;20.20;5.88;;;12.10;98.40;;;;;;5049919;28;20479;-68
2023/08/05 00:24:59;;;;;;;12.18;5.57;;;12.20;98.50;;;;;;5052279;28;20041;-68
2023/08/05 00:27:24;;;;;;;17.00;6.35;;;12.30;98.40;;;;;;5036036;28;20040;-68
2023/08/05 00:29:50;;;;;;;15.30;5.93;;;12.40;98.50;;;;;;5044178;28;20055;-68
2023/08/05 00:32:15;;;;;;;19.58;6.97;;;12.40;98.50;;;;;;5067480;28;20028;-68
2023/08/05 00:34:40;;;;;;;13.85;6.28;;;12.60;98.60;;;;;;5050765;28;20025;-68
2023/08/05 00:37:06;;;;;;;15.45;6.57;;;12.60;98.50;;;;;;5051739;28;20048;-68
2023/08/05 00:39:31;;;;;;;15.27;6.50;;;12.70;98.60;;;;;;5072129;28;20537;-68
2023/08/05 00:41:57;;;;;;;14.48;6.75;;;12.80;98.50;;;;;;5062359;28;20032;-68
2023/08/05 00:44:23;;;;;;;17.67;6.85;;;12.90;98.40;;;;;;5054101;28;20068;-68
2023/08/05 00:46:49;;;;;;;20.65;6.88;;;12.90;98.30;;;;;;5050613;28;20376;-69
2023/08/05 00:49:15;;;;;;;16.92;7.55;;;13.00;98.30;;;;;;5065962;28;20032;-68
2023/08/05 00:51:41;;;;;;;12.70;6.75;;;13.00;98.20;;;;;;5055411;28;20029;-68
2023/08/05 00:54:07;;;;;;;14.65;6.90;;;13.10;98.20;;;;;;5068389;28;20032;-68
2023/08/05 00:56:32;;;;;;;18.90;8.10;;;13.10;98.10;;;;;;5056018;28;20029;-68
2023/08/05 00:58:58;;;;;;;18.88;7.88;;;13.10;98.00;;;;;;5065140;28;20059;-68
2023/08/05 01:01:23;;;;;;;18.13;7.13;;;13.10;98.00;;;;;;5063580;28;20029;-68
2023/08/05 01:03:49;;;;;;;21.13;7.53;;;13.20;98.00;;;;;;5054296;28;20036;-68
2023/08/05 01:06:16;;;;;;;17.17;7.30;;;13.20;98.00;;;;;;5060229;28;20389;-68
2023/08/05 01:08:42;;;;;;;15.27;6.78;;;13.20;97.80;;;;;;5055701;28;20021;-68
2023/08/05 01:11:09;;;;;;;16.08;6.53;;;13.20;97.90;;;;;;5061195;28;20025;-68
2023/08/05 01:13:36;;;;;;;14.50;6.05;;;13.30;98.00;;;;;;5053260;28;20044;-68
2023/08/05 01:16:01;;;;;;;15.30;6.45;;;13.30;97.90;;;;;;5049547;28;20044;-68
2023/08/05 01:18:28;;;;;;;9.63;5.10;;;13.30;97.90;;;;;;5059097;28;20036;-68
2023/08/05 01:20:55;;;;;;;17.13;5.85;;;13.30;97.90;;;;;;5053065;28;20109;-68
2023/08/05 01:23:40;;;;;;;11.85;5.35;;;13.40;97.90;;;;;;5053884;28;20043;-68
2023/08/05 01:26:06;;;;;;;11.63;5.45;;;13.40;97.90;;;;;;5044905;28;20096;-68
2023/08/05 01:28:33;;;;;;;11.77;5.90;;;13.40;97.80;;;;;;5057919;28;20474;-68
2023/08/05 01:31:01;;;;;;;17.08;5.53;;;13.50;97.80;;;;;;5056098;28;20385;-69
2023/08/05 01:33:28;;;;;;;11.50;5.40;;;13.40;97.70;;;;;;5041276;28;20496;-68
2023/08/05 01:35:53;;;;;;;10.88;5.80;;;13.50;97.70;;;;;;5043134;28;20037;-68
2023/08/05 01:38:19;;;;;;;10.15;4.97;;;13.50;97.70;;;;;;5054358;28;20102;-68
2023/08/05 01:40:45;;;;;;;12.18;5.95;;;13.50;97.70;;;;;;5046531;28;20035;-68
2023/08/05 01:43:10;;;;;;;12.63;5.05;;;13.50;97.70;;;;;;5044503;28;20063;-68
2023/08/05 01:45:36;;;;;;;11.02;5.70;;;13.50;97.70;;;;;;5046742;28;20072;-69
2023/08/05 01:48:01;;;;;;;12.57;5.60;;;13.50;97.70;;;;;;5044728;28;20040;-68
2023/08/05 01:50:26;;;;;;;12.57;5.60;;;13.50;97.60;;;;;;5050147;28;20370;-68
2023/08/05 01:52:53;;;;;;;10.75;4.75;;;13.50;97.60;;;;;;5050378;28;20033;-69
2023/08/05 01:55:19;;;;;;;11.95;5.50;;;13.40;97.50;;;;;;5037936;28;20441;-68
2023/08/05 01:57:44;;;;;;;11.90;5.85;;;13.30;97.70;;;;;;5041838;28;20037;-68
2023/08/05 02:00:10;;;;;;;11.05;5.45;;;13.20;97.80;;;;;;5040374;28;20403;-68
2023/08/05 02:02:36;;;;;;;11.77;4.90;;;13.20;97.70;;;;;;5041230;28;20764;-68
2023/08/05 02:05:01;;;;;;;10.27;5.05;;;13.10;97.70;;;;;;5044970;28;20083;-68
2023/08/05 02:07:27;;;;;;;10.75;4.95;;;13.10;97.70;;;;;;5040085;28;20080;-68
2023/08/05 02:09:52;;;;;;;14.25;5.78;;;13.00;97.70;;;;;;5045401;28;20043;-68
2023/08/05 02:12:18;;;;;;;10.93;5.00;;;12.90;98.00;;;;;;5041560;28;20094;-68
2023/08/05 02:14:43;;;;;;;10.88;4.78;;;12.80;97.90;;;;;;5048129;28;20036;-68
2023/08/05 02:17:08;;;;;;;14.88;5.00;;;12.70;98.00;;;;;;5039406;28;20029;-68
2023/08/05 02:19:34;;;;;;;12.55;4.97;;;12.70;98.10;;;;;;5053910;28;20038;-68
2023/08/05 02:21:59;;;;;;;12.02;4.80;;;12.60;98.20;;;;;;5039043;28;20151;-68
2023/08/05 02:24:25;;;;;;;9.80;5.00;;;12.60;98.30;;;;;;5051162;28;20037;-68
2023/08/05 02:26:50;;;;;;;11.68;5.72;;;12.60;98.40;;;;;;5041477;28;20033;-69
2023/08/05 02:29:16;;;;;;;12.20;5.47;;;12.60;98.50;;;;;;5044055;28;20538;-69
2023/08/05 02:31:42;;;;;;;10.43;6.18;;;12.60;98.50;;;;;;5061811;28;20041;-68
2023/08/05 02:34:07;;;;;;;14.45;5.95;;;12.60;98.40;;;;;;5051307;28;20106;-68
2023/08/05 02:36:32;;;;;;;17.15;6.25;;;12.60;98.40;;;;;;5048904;28;20033;-69
2023/08/05 02:38:58;;;;;;;13.32;5.25;;;12.50;98.40;;;;;;5051422;28;20057;-68
2023/08/05 02:41:23;;;;;;;13.25;5.85;;;12.50;98.40;;;;;;5052236;28;20029;-68
2023/08/05 02:43:49;;;;;;;11.98;6.05;;;12.50;98.50;;;;;;5047289;28;20056;-68
2023/08/05 02:46:14;;;;;;;19.75;6.00;;;12.50;98.50;;;;;;5041601;28;20037;-68
2023/08/05 02:48:40;;;;;;;16.52;6.15;;;12.50;98.60;;;;;;5054790;28;20029;-68
2023/08/05 02:51:05;;;;;;;14.77;5.75;;;12.50;98.80;;;;;;5060369;28;20072;-68
2023/08/05 02:53:31;;;;;;;15.88;6.95;;;12.50;98.70;;;;;;5056313;28;20052;-68
2023/08/05 02:55:56;;;;;;;10.10;6.13;;;12.50;98.80;;;;;;5053145;28;20044;-68
2023/08/05 02:58:22;;;;;;;15.00;6.55;;;12.50;98.80;;;;;;5055215;28;20119;-68
2023/08/05 03:00:47;;;;;;;12.07;6.40;;;12.40;98.60;;;;;;5048505;28;20457;-69
2023/08/05 03:03:15;;;;;;;18.48;6.60;;;12.40;98.80;;;;;;5053326;28;20472;-68
2023/08/05 03:05:40;;;;;;;12.98;6.75;;;12.30;98.80;;;;;;5057818;28;20115;-68
2023/08/05 03:08:06;;;;;;;14.10;6.50;;;12.30;98.80;;;;;;5033853;28;20544;-68
2023/08/05 03:10:32;;;;;;;16.42;6.18;;;12.40;98.90;;;;;;5057661;28;20035;-68
2023/08/05 03:12:57;;;;;;;12.30;5.40;;;12.40;98.90;;;;;;5055135;28;20036;-68
2023/08/05 03:15:26;;;;;;;13.82;6.70;;;12.40;98.80;;;;;;5050816;28;20377;-69
2023/08/05 03:17:51;;;;;;;13.35;6.47;;;12.40;99.00;;;;;;5051101;28;20026;-68
2023/08/05 03:20:37;;;;;;;15.95;6.47;;;12.50;98.90;;;;;;5049139;28;20043;-68
2023/08/05 03:23:02;;;;;;;16.20;5.95;;;12.50;98.90;;;;;;5053313;28;20479;-68
2023/08/05 03:25:28;;;;;;;13.27;5.97;;;12.50;98.90;;;;;;5054470;28;20052;-68
2023/08/05 03:27:53;;;;;;;11.93;5.95;;;12.50;99.00;;;;;;5049255;28;20115;-69
2023/08/05 03:30:20;;;;;;;19.38;7.10;;;12.50;99.00;;;;;;5045353;28;20382;-68
2023/08/05 03:32:48;;;;;;;13.07;6.82;;;12.60;99.10;;;;;;5060883;28;20044;-68
2023/08/05 03:35:14;;;;;;;15.23;7.63;;;12.60;99.10;;;;;;5048461;28;20103;-68
2023/08/05 03:37:40;;;;;;;14.90;6.50;;;12.60;99.20;;;;;;5053159;28;20060;-68
2023/08/05 03:40:06;;;;;;;17.98;6.70;;;12.70;99.20;;;;;;5053779;28;20046;-68
2023/08/05 03:42:31;;;;;;;13.88;6.78;;;12.70;99.20;;;;;;5050799;28;20020;-69
2023/08/05 03:44:57;;;;;;;15.27;7.00;;;12.70;99.10;;;;;;5048635;28;20029;-68
2023/08/05 03:47:23;;;;;;;15.95;6.82;;;12.70;99.10;;;;;;5045781;28;20358;-68
2023/08/05 03:49:48;;;;;;;17.27;6.60;;;12.70;99.10;;;;;;5047210;28;20116;-68
2023/08/05 03:52:14;;;;;;;14.35;6.55;;;12.80;99.10;;;;;;5039069;28;20117;-69
2023/08/05 03:54:40;;;;;;;17.40;7.07;;;12.80;99.20;;;;;;5043749;28;20052;-68
2023/08/05 03:57:08;;;;;;;12.27;5.78;;;12.80;99.20;;;;;;5051221;28;20076;-68
2023/08/05 03:59:35;;;;;;;17.08;7.07;;;12.80;99.10;;;;;;5042628;28;20440;-68
2023/08/05 04:02:01;;;;;;;11.50;5.80;;;12.90;99.20;;;;;;5036305;28;20091;-68
2023/08/05 04:04:27;;;;;;;15.40;5.68;;;12.90;99.10;;;;;;5038438;28;20037;-68
2023/08/05 04:06:52;;;;;;;12.55;6.68;;;13.00;99.10;;;;;;5033784;28;20042;-68
2023/08/05 04:09:19;;;;;;;14.80;6.47;;;13.00;99.10;;;;;;5042962;28;20041;-68
2023/08/05 04:11:45;;;;;;;15.23;6.57;;;13.00;99.00;;;;;;5054736;28;20497;-68
2023/08/05 04:14:11;;;;;;;12.00;6.85;;;13.10;99.10;;;;;;5044146;28;20064;-69
2023/08/05 04:16:37;;;;;;;14.40;6.57;;;13.10;99.00;;;;;;5045730;28;20477;-68
2023/08/05 04:19:03;;;;;;;14.82;6.75;;;13.10;99.00;;;;;;5050105;28;20037;-68
2023/08/05 04:21:35;;;;;;;17.75;6.72;;;13.20;99.00;;;;;;5045449;28;20492;-68
2023/08/05 04:24:01;;;;;;;16.45;6.85;;;13.20;99.00;;;;;;5042138;28;20024;-69
2023/08/05 04:26:27;;;;;;;18.23;7.00;;;13.30;98.80;;;;;;5043207;28;20021;-68
2023/08/05 04:28:52;;;;;;;17.30;7.60;;;13.30;98.80;;;;;;5036246;28;20044;-66
2023/08/05 04:31:18;;;;;;;20.63;7.60;;;13.30;98.80;;;;;;5049657;28;20039;-66
2023/08/05 04:33:44;;;;;;;12.32;6.85;;;13.30;98.70;;;;;;5063757;28;20071;-67
2023/08/05 04:36:09;;;;;;;13.00;6.85;;;13.30;98.70;;;;;;5055559;28;20132;-66
2023/08/05 04:38:35;;;;;;;11.80;6.70;;;13.40;98.60;;;;;;5063461;28;20028;-66
2023/08/05 04:41:00;;;;;;;13.68;6.70;;;13.50;98.80;;;;;;5058979;28;20377;-66
2023/08/05 04:43:26;;;;;;;17.40;7.22;;;13.50;98.70;;;;;;5058191;28;20037;-66
2023/08/05 04:45:51;;;;;;;19.58;6.90;;;13.60;98.60;;;;;;5059303;28;20465;-66
2023/08/05 04:48:17;;;;;;;14.55;6.50;;;13.60;98.60;;;;;;5057982;28;20048;-67
2023/08/05 04:50:43;;;;;;;14.70;6.47;;;13.60;98.50;;;;;;5054633;28;20048;-67
2023/08/05 04:53:08;;;;;;;18.60;6.25;;;13.60;98.50;;;;;;5056598;28;20103;-67
2023/08/05 04:55:34;;;;;;;12.68;5.95;;;13.70;98.30;;;;;;5058742;28;20040;-66
2023/08/05 04:58:00;;;;;;;10.23;5.82;;;13.70;98.30;;;;;;5043090;28;20072;-66
2023/08/05 05:00:25;;;;;;;14.52;6.40;;;13.70;98.20;;;;;;5051299;28;20029;-66
2023/08/05 05:02:51;;;;;;;15.48;5.78;;;13.70;98.10;;;;;;5040460;28;20037;-66
2023/08/05 05:05:17;;;;;;;11.07;6.05;;;13.70;98.00;;;;;;5066047;28;20033;-67
2023/08/05 05:07:43;;;;;;;9.65;5.15;;;13.60;98.00;;;;;;5049303;28;20045;-66
2023/08/05 05:10:08;;;;;;;13.43;5.93;;;13.60;98.00;;;;;;5056303;28;20041;-67
2023/08/05 05:12:34;;;;;;;14.25;5.38;;;13.50;98.10;;;;;;5053363;28;20030;-67
2023/08/05 05:14:59;;;;;;;13.88;5.68;;;13.40;98.00;;;;;;5059015;28;20029;-66
2023/08/05 05:17:25;;;;;;;15.25;5.90;;;13.40;98.10;;;;;;5049193;28;20104;-66
2023/08/05 05:19:50;;;;;;;14.38;6.63;;;13.30;98.10;;;;;;5054387;28;20460;-68
2023/08/05 05:22:17;;;;;;;12.30;5.95;;;13.20;98.20;;;;;;5051503;28;20041;-66
2023/08/05 05:24:43;;;;;;;13.63;5.28;;;13.20;98.40;;;;;;5064290;28;20472;-66
2023/08/05 05:27:13;;;;;;;12.93;6.20;;;13.20;98.40;;;;;;5057760;28;20064;-66
2023/08/05 05:29:39;;;;;;;14.88;6.60;;;13.20;98.50;;;;;;5052264;28;20059;-66
2023/08/05 05:32:05;;;;;;;16.42;6.40;;;13.20;98.60;;;;;;5055664;28;20072;-66
2023/08/05 05:34:30;;;;;;;12.70;6.57;;;13.30;98.60;;;;;;5052325;28;20017;-66
2023/08/05 05:36:55;;;;;;;15.25;6.38;;;13.30;98.60;;;;;;5050916;28;20053;-67
2023/08/05 05:39:21;;;;;;;16.42;6.90;;;13.30;98.60;;;;;;5046366;28;20025;-67
2023/08/05 05:41:46;;;;;;;15.07;7.10;;;13.40;98.60;;;;;;5049111;28;20037;-67
2023/08/05 05:44:12;;;;;;;12.05;6.38;;;13.50;98.60;;;;;;5039392;28;20112;-66
2023/08/05 05:46:38;;;;;;;19.38;7.20;;;13.60;98.50;;;;;;5052806;28;20083;-66
2023/08/05 05:49:04;;;;;;;18.40;7.28;;;13.70;98.60;;;;;;5054945;28;20433;-66
2023/08/05 05:51:29;;;;;;;20.67;6.95;;;13.80;98.20;;;;;;5043179;28;20124;-66
2023/08/05 05:53:57;;;;;;;18.98;6.60;;;13.90;97.90;;;;;;5040074;28;20091;-66
2023/08/05 05:56:22;;;;;;;16.38;6.72;;;14.00;97.60;;;;;;5046056;28;20117;-66
2023/08/05 05:58:48;;;;;;;14.32;6.32;;;14.10;97.30;;;;;;5045178;28;20033;-67
2023/08/05 06:01:14;;;;;;;16.00;6.57;;;14.30;97.00;;;;;;5045032;28;20029;-67
2023/08/05 06:03:40;;;;;;;15.20;6.22;;;14.60;97.10;;;;;;5051413;28;20124;-67
2023/08/05 06:06:06;;;;;;;11.93;6.10;;;14.70;96.40;;;;;;5038165;28;20033;-67
2023/08/05 06:08:31;;;;;;;12.25;5.65;;;15.00;96.10;;;;;;5035938;28;20037;-67
2023/08/05 06:11:02;;;;;;;10.95;5.03;;;15.10;96.00;;;;;;5038879;28;20385;-67
2023/08/05 06:13:28;;;;;;;12.52;4.95;;;15.30;95.30;;;;;;5050246;28;20032;-67
2023/08/05 06:15:54;;;;;;;9.85;4.65;;;15.40;94.70;;;;;;5048970;28;20518;-66
2023/08/05 06:18:19;;;;;;;10.05;3.83;;;15.50;93.60;;;;;;5054290;28;20496;-66
2023/08/05 06:20:47;;;;;;;8.70;3.80;;;15.60;93.70;;;;;;5053127;28;20068;-67
2023/08/05 06:23:13;;;;;;;11.10;4.03;;;15.70;93.40;;;;;;5052295;28;20075;-67
2023/08/05 06:25:38;;;;;;;12.63;3.80;;;15.80;93.70;;;;;;5049672;28;20045;-67
2023/08/05 06:28:04;;;;;;;9.15;3.58;;;15.90;92.80;;;;;;5041598;28;20098;-68
2023/08/05 06:30:29;;;;;;;7.80;3.65;;;16.00;92.90;;;;;;5045414;28;20029;-67
2023/08/05 06:32:55;;;;;;;9.50;3.58;;;16.00;92.80;;;;;;5047759;28;20115;-67
2023/08/05 06:35:20;;;;;;;9.20;3.47;;;16.20;92.90;;;;;;5051236;28;20029;-66
2023/08/05 06:37:46;;;;;;;9.70;3.40;;;16.20;91.80;;;;;;5061104;28;20033;-66
2023/08/05 06:40:11;;;;;;;8.25;3.40;;;16.20;92.30;;;;;;5052790;28;20292;-67
2023/08/05 06:42:37;;;;;;;7.05;3.30;;;16.40;92.50;;;;;;5050373;28;20032;-67
2023/08/05 06:45:03;;;;;;;10.07;3.30;;;16.30;90.90;;;;;;5062739;28;20036;-67
2023/08/05 06:47:31;;;;;;;7.57;2.90;;;16.50;91.40;;;;;;5055528;28;20035;-68
2023/08/05 06:50:01;;;;;;;7.20;2.50;;;16.70;91.30;;;;;;5051681;28;20463;-67
2023/08/05 06:52:27;;;;;;;8.43;2.28;;;16.60;90.20;;;;;;5059087;28;20033;-67
2023/08/05 06:54:52;;;;;;;6.22;2.15;;;16.80;89.90;;;;;;5063093;28;20047;-67
2023/08/05 06:57:18;;;;;;;5.47;1.98;;;16.80;88.70;;;;;;5054565;28;20416;-67
2023/08/05 06:59:43;;;;;;;7.63;2.08;;;16.80;88.70;;;;;;5053646;28;20028;-67
2023/08/05 07:02:11;;;;;;;8.93;2.30;;;16.70;87.60;;;;;;5057107;28;20067;-67
2023/08/05 07:04:37;;;;;;;7.85;2.58;;;16.80;87.90;;;;;;5058972;28;20035;-67
2023/08/05 07:07:02;;;;;;;6.93;2.10;;;16.80;88.40;;;;;;5060161;28;20025;-67
2023/08/05 07:09:28;;;;;;;10.90;2.22;;;16.80;88.20;;;;;;5048430;28;20029;-67
2023/08/05 07:11:54;;;;;;;8.18;2.08;;;17.00;88.30;;;;;;5057634;28;20147;-66
2023/08/05 07:14:19;;;;;;;7.07;3.03;;;17.10;88.20;;;;;;5052176;28;20095;-67
2023/08/05 07:16:45;;;;;;;7.90;2.25;;;17.20;87.50;;;;;;5055993;28;20037;-67
2023/08/05 07:19:10;;;;;;;7.28;2.05;;;17.30;87.30;;;;;;5050737;28;20405;-67
2023/08/05 07:21:36;;;;;;;5.32;2.00;;;17.30;86.60;;;;;;5051139;28;20043;-67
2023/08/05 07:24:01;;;;;;;9.07;1.95;;;17.60;86.80;;;;;;5045425;28;20548;-67
2023/08/05 07:26:27;;;;;;;4.38;1.90;;;17.60;85.30;;;;;;5047510;28;20025;-67
2023/08/05 07:28:52;;;;;;;6.97;2.10;;;17.70;85.90;;;;;;5050501;28;20579;-67
2023/08/05 07:31:18;;;;;;;8.50;2.40;;;17.60;85.30;;;;;;5061415;28;20366;-67
2023/08/05 07:33:46;;;;;;;5.65;1.80;;;17.80;85.90;;;;;;5048577;28;20374;-66
2023/08/05 07:36:12;;;;;;;8.50;1.95;;;18.00;85.90;;;;;;5039824;28;20377;-67
2023/08/05 07:38:40;;;;;;;6.85;2.15;;;18.20;85.90;;;;;;5042925;28;20038;-68
2023/08/05 07:41:08;;;;;;;8.95;2.00;;;18.00;83.30;;;;;;5036592;28;20034;-67
2023/08/05 07:43:36;;;;;;;7.30;1.77;;;17.80;83.10;;;;;;5045013;28;20473;-67
2023/08/05 07:46:05;;;;;;;5.80;1.73;;;17.90;84.30;;;;;;5047423;28;20032;-67
2023/08/05 07:48:35;;;;;;;5.97;1.90;;;18.00;83.30;;;;;;5049511;28;20918;-67
2023/08/05 07:51:01;;;;;;;6.50;1.73;;;17.90;82.80;;;;;;5051779;28;20032;-67
2023/08/05 07:53:29;;;;;;;5.95;1.77;;;18.00;84.30;;;;;;5045931;28;20037;-68
2023/08/05 07:55:55;;;;;;;5.43;2.35;;;17.70;82.40;;;;;;5038239;28;20028;-67
2023/08/05 07:58:21;;;;;;;8.75;2.17;;;17.80;82.40;;;;;;5046507;28;20401;-67
2023/08/05 08:00:46;;;;;;;6.20;1.70;;;18.00;83.60;;;;;;5039921;28;20048;-68
2023/08/05 08:03:12;;;;;;;5.40;1.95;;;18.00;81.40;;;;;;5034696;28;20046;-67
2023/08/05 08:05:37;;;;;;;7.38;1.83;;;18.30;82.70;;;;;;5048838;28;20452;-67
2023/08/05 08:08:03;;;;;;;6.28;1.65;;;18.50;83.00;;;;;;5034384;28;20055;-67
2023/08/05 08:10:29;;;;;;;7.78;2.10;;;18.50;80.70;;;;;;5045578;28;20249;-67
2023/08/05 08:12:54;;;;;;;4.07;1.40;;;18.50;79.60;;;;;;5035423;28;20473;-66
2023/08/05 08:15:20;;;;;;;8.00;1.52;;;18.50;79.70;;;;;;5035666;28;20029;-67
2023/08/05 08:17:46;;;;;;;4.43;1.55;;;18.60;77.90;;;;;;5033691;28;20036;-67
2023/08/05 08:20:11;;;;;;;6.28;1.75;;;18.60;77.30;;;;;;5043015;28;20075;-67
2023/08/05 08:22:37;;;;;;;5.13;1.65;;;19.10;79.20;;;;;;5030691;28;20037;-68
2023/08/05 08:25:03;;;;;;;6.78;1.90;;;19.30;74.60;;;;;;5040030;28;20060;-67
2023/08/05 08:27:28;;;;;;;4.53;1.25;;;19.70;75.10;;;;;;5047900;28;20037;-67
2023/08/05 08:29:54;;;;;;;8.02;1.65;;;19.60;73.70;;;;;;5044665;28;20091;-67
2023/08/05 08:32:19;;;;;;;6.75;1.60;;;19.40;71.20;;;;;;5065622;28;20028;-67
2023/08/05 08:34:45;;;;;;;6.85;1.65;;;19.20;71.90;;;;;;5051072;28;20036;-67
2023/08/05 08:37:10;;;;;;;6.47;1.60;;;19.10;72.90;;;;;;5045009;28;20029;-68
2023/08/05 08:39:36;;;;;;;2.33;1.30;;;19.20;73.10;;;;;;5053871;28;20131;-67
2023/08/05 08:42:01;;;;;;;3.65;1.35;;;19.00;72.70;;;;;;5044807;28;20051;-67
2023/08/05 08:44:28;;;;;;;4.13;1.60;;;18.80;70.10;;;;;;5055080;28;20483;-67
2023/08/05 08:46:53;;;;;;;7.15;1.75;;;18.90;72.80;;;;;;5047737;28;20458;-67
2023/08/05 08:49:19;;;;;;;2.95;1.45;;;19.20;69.30;;;;;;5053407;28;20036;-67
2023/08/05 08:51:49;;;;;;;5.05;1.40;;;19.90;72.50;;;;;;5053953;28;20069;-67
2023/08/05 08:54:16;;;;;;;2.50;1.10;;;20.00;65.60;;;;;;5060826;28;20071;-67
2023/08/05 08:56:41;;;;;;;3.83;1.33;;;19.70;64.10;;;;;;5046293;28;20034;-67
2023/08/05 08:59:07;;;;;;;3.30;0.98;;;19.40;64.10;;;;;;5054504;28;20120;-67
2023/08/05 09:01:36;;;;;;;1.95;0.95;;;19.50;63.70;;;;;;5051641;28;20037;-67
2023/08/05 09:04:03;;;;;;;3.28;1.23;;;19.70;64.30;;;;;;5051012;28;20047;-67
2023/08/05 09:06:29;;;;;;;3.50;1.30;;;20.20;63.10;;;;;;5055808;28;20037;-69
2023/08/05 09:08:54;;;;;;;5.07;1.30;;;20.50;63.60;;;;;;5053608;28;20044;-67
2023/08/05 09:11:20;;;;;;;3.30;1.25;;;20.60;63.80;;;;;;5063829;28;20025;-67
2023/08/05 09:13:46;;;;;;;6.82;1.48;;;20.60;63.70;;;;;;5054359;28;20032;-68
2023/08/05 09:16:14;;;;;;;3.30;1.33;;;20.70;64.50;;;;;;5046960;28;20029;-68
2023/08/05 09:18:56;;;;;;;2.70;1.23;;;20.50;64.40;;;;;;5068759;28;20028;-67
2023/08/05 09:21:26;;;;;;;5.60;1.38;;;20.70;62.80;;;;;;5044290;28;20020;-67
2023/08/05 09:23:56;;;;;;;3.88;1.58;;;20.50;64.30;;;;;;5052799;28;20029;-68
2023/08/05 09:26:29;;;;;;;3.07;1.17;;;20.00;65.70;;;;;;5058496;28;20033;-67
2023/08/05 09:28:56;;;;;;;4.40;1.17;;;19.60;67.10;;;;;;5043925;28;20292;-67
2023/08/05 09:31:22;;;;;;;4.43;1.58;;;19.30;66.40;;;;;;5050912;28;20117;-68
2023/08/05 09:33:47;;;;;;;6.07;1.50;;;18.90;66.90;;;;;;5050613;28;20109;-67
2023/08/05 09:36:14;;;;;;;3.63;1.20;;;18.80;68.00;;;;;;5056204;28;20035;-67
2023/08/05 09:38:41;;;;;;;3.90;1.40;;;19.00;70.90;;;;;;5045777;28;20021;-67
2023/08/05 09:41:07;;;;;;;4.88;1.30;;;19.50;69.50;;;;;;5055731;28;20040;-68
2023/08/05 09:43:38;;;;;;;3.60;1.30;;;20.00;69.00;;;;;;5055118;28;20029;-67
2023/08/05 09:46:05;;;;;;;5.15;1.92;;;20.50;65.00;;;;;;5045607;28;20032;-67
2023/08/05 09:48:41;;;;;;;3.47;1.65;;;20.70;63.90;;;;;;5047600;28;20456;-67
2023/08/05 09:51:08;;;;;;;4.90;1.75;;;20.90;65.80;;;;;;5050189;28;20032;-68
2023/08/05 09:53:37;;;;;;;5.40;1.35;;;20.90;63.20;;;;;;5040538;28;20029;-67
2023/08/05 09:56:06;;;;;;;4.55;1.38;;;21.00;63.40;;;;;;5040293;28;20527;-67
2023/08/05 09:58:35;;;;;;;3.45;1.30;;;21.40;61.60;;;;;;5042457;28;20084;-67
2023/08/05 10:01:01;;;;;;;5.20;1.42;;;21.50;61.70;;;;;;5045326;28;20103;-67
2023/08/05 10:03:28;;;;;;;5.40;1.52;;;21.90;63.70;;;;;;5054949;28;20029;-68
2023/08/05 10:05:56;;;;;;;4.75;1.58;;;21.90;59.10;;;;;;5051258;28;20032;-68
2023/08/05 10:08:24;;;;;;;5.78;1.40;;;21.90;61.00;;;;;;5044827;28;20056;-68
2023/08/05 10:10:50;;;;;;;3.60;1.40;;;22.00;61.60;;;;;;5048697;28;20036;-68
2023/08/05 10:13:17;;;;;;;4.38;1.38;;;22.00;61.50;;;;;;5041684;28;20068;-68
2023/08/05 10:15:47;;;;;;;4.40;1.13;;;22.00;59.60;;;;;;5041672;28;20029;-67
2023/08/05 10:18:15;;;;;;;4.13;1.27;;;21.90;58.70;;;;;;5035356;28;20030;-69
2023/08/05 10:20:40;;;;;;;3.63;1.15;;;21.70;58.20;;;;;;5039944;28;20420;-67
2023/08/05 10:23:13;;;;;;;4.60;1.40;;;22.00;58.80;;;;;;5033843;28;20025;-67
2023/08/05 10:25:42;;;;;;;5.78;1.30;;;21.90;56.00;;;;;;5047453;28;20123;-69
2023/08/05 10:28:09;;;;;;;3.28;1.40;;;22.10;57.90;;;;;;5033452;28;20030;-68
2023/08/05 10:30:42;;;;;;;4.88;1.35;;;21.90;61.90;;;;;;5050380;28;20377;-67
2023/08/05 10:33:07;;;;;;;3.25;1.20;;;22.10;59.90;;;;;;5049370;28;20048;-68
2023/08/05 10:35:39;;;;;;;4.35;1.58;;;21.80;59.30;;;;;;5055088;28;20408;-68
2023/08/05 10:38:08;;;;;;;6.63;2.20;;;21.70;64.30;;;;;;5046828;28;20495;-68
2023/08/05 10:41:00;;;;;;;6.32;1.88;;;22.20;60.80;;;;;;5045010;28;20029;-68
2023/08/05 10:43:34;;;;;;;7.28;1.60;;;22.00;62.20;;;;;;5050964;28;20059;-68
2023/08/05 10:46:05;;;;;;;4.93;1.73;;;22.60;61.70;;;;;;5046616;28;20052;-68
2023/08/05 10:48:36;;;;;;;4.68;1.30;;;22.50;58.30;;;;;;5062788;28;20060;-68
2023/08/05 10:51:11;;;;;;;6.43;1.80;;;21.90;58.40;;;;;;5067278;28;20741;-68
2023/08/05 10:53:37;;;;;;;2.88;1.20;;;21.70;60.40;;;;;;5065657;28;20040;-69
2023/08/05 10:56:07;;;;;;;4.05;1.40;;;22.50;62.50;;;;;;5050397;28;20032;-68
2023/08/05 10:58:35;;;;;;;3.85;1.88;;;22.40;60.00;;;;;;5054941;28;20028;-68
2023/08/05 11:01:03;;;;;;;4.45;1.48;;;22.40;59.90;;;;;;5052683;28;20474;-68
2023/08/05 11:03:42;;;;;;;6.03;1.45;;;23.10;60.70;;;;;;5061907;28;20039;-68
2023/08/05 11:06:09;;;;;;;6.35;1.50;;;22.90;58.30;;;;;;5058389;28;20024;-67
2023/08/05 11:08:36;;;;;;;4.38;1.23;;;22.80;59.90;;;;;;5047030;28;20123;-69
2023/08/05 11:11:13;;;;;;;5.65;1.10;;;23.00;60.00;;;;;;5057125;28;20030;-68
2023/08/05 11:13:46;;;;;;;4.57;1.48;;;23.00;57.50;;;;;;5046654;28;20032;-70
2023/08/05 11:16:16;;;;;;;3.55;1.40;;;23.80;58.60;;;;;;5044564;28;20106;-68
2023/08/05 11:18:54;;;;;;;5.28;1.45;;;23.80;53.40;;;;;;5061171;28;20024;-68
2023/08/05 11:21:20;;;;;;;2.58;1.30;;;23.50;57.00;;;;;;5050054;28;20024;-68
2023/08/05 11:23:45;;;;;;;5.07;1.77;;;23.50;55.30;;;;;;5048703;28;20040;-68
2023/08/05 11:26:11;;;;;;;4.18;1.50;;;23.10;59.10;;;;;;5052261;28;20056;-68
2023/08/05 11:28:44;;;;;;;3.65;1.35;;;22.70;58.50;;;;;;5062192;28;20044;-68
2023/08/05 11:31:19;;;;;;;4.25;1.50;;;22.50;58.00;;;;;;5053604;28;20045;-68
2023/08/05 11:33:48;;;;;;;3.22;1.25;;;23.10;60.50;;;;;;5047453;28;20473;-68
2023/08/05 11:36:13;;;;;;;4.97;1.75;;;22.60;57.80;;;;;;5041194;28;20527;-68
2023/08/05 11:38:39;;;;;;;5.38;1.70;;;22.20;58.70;;;;;;5045173;28;20037;-68
2023/08/05 11:41:05;;;;;;;4.20;1.58;;;22.10;61.90;;;;;;5041221;28;20161;-67
2023/08/05 11:43:31;;;;;;;5.45;1.70;;;22.40;58.60;;;;;;5050946;28;20473;-68
2023/08/05 11:45:57;;;;;;;4.50;1.60;;;23.40;60.10;;;;;;5045350;28;20029;-69
2023/08/05 11:48:25;;;;;;;4.70;1.98;;;22.80;56.70;;;;;;5044801;28;20087;-68
2023/08/05 11:50:57;;;;;;;6.88;1.50;;;23.50;60.70;;;;;;5046129;28;20028;-68
2023/08/05 11:53:22;;;;;;;5.13;1.77;;;23.30;55.10;;;;;;5036064;28;20514;-68
2023/08/05 11:55:47;;;;;;;6.50;1.63;;;22.30;55.70;;;;;;5050206;28;20056;-68
2023/08/05 11:58:13;;;;;;;6.18;1.80;;;22.80;58.00;;;;;;5047760;28;20048;-68
2023/08/05 12:00:52;;;;;;;4.05;1.63;;;23.30;59.10;;;;;;5046714;28;20342;-68
2023/08/05 12:03:17;;;;;;;4.47;1.45;;;24.00;57.30;;;;;;5043851;28;20116;-68
2023/08/05 12:05:44;;;;;;;4.95;1.40;;;23.70;56.90;;;;;;5054474;28;20108;-68
2023/08/05 12:08:10;;;;;;;3.70;1.60;;;23.50;56.40;;;;;;5049669;28;20033;-68
2023/08/05 12:10:36;;;;;;;2.90;1.58;;;24.40;55.10;;;;;;5048453;28;20131;-68
2023/08/05 12:13:05;;;;;;;3.03;1.75;;;24.00;56.40;;;;;;5045916;28;20112;-68
2023/08/05 12:15:31;;;;;;;5.30;1.70;;;24.40;53.70;;;;;;5033722;28;20089;-68
2023/08/05 12:17:58;;;;;;;3.25;1.20;;;24.10;53.30;;;;;;5041983;28;20041;-68
2023/08/05 12:20:25;;;;;;;4.18;1.60;;;24.60;53.50;;;;;;5046698;28;20087;-68
2023/08/05 12:22:52;;;;;;;2.67;1.52;;;25.20;52.00;;;;;;5040433;28;20045;-68
2023/08/05 12:25:18;;;;;;;2.45;1.45;;;25.10;52.70;;;;;;5046938;28;20135;-69
2023/08/05 12:27:44;;;;;;;3.67;1.52;;;24.60;52.50;;;;;;5036900;28;20030;-69
2023/08/05 12:30:11;;;;;;;2.88;1.27;;;25.50;52.10;;;;;;5033316;28;20064;-68
2023/08/05 12:32:37;;;;;;;3.25;1.38;;;26.30;51.00;;;;;;5054886;28;20357;-68
2023/08/05 12:35:06;;;;;;;4.43;1.40;;;25.80;52.70;;;;;;5050246;28;20102;-68
2023/08/05 12:37:36;;;;;;;4.28;1.45;;;25.00;50.60;;;;;;5061508;28;20036;-68